Airfield :







YOU CAN JOIN US ON...

 
LOGIN :

Register | Disclaimer

   EN    FR    IT 

 









Legend :    VFR   Marginal VFR   IFR   Intensive IFR   Very Intensive IFR
Visi :
Ceiling :
>= 8 km
>= 3000ft
5 to 8 km
1000 to 3000 ft
1500m to 5 km
500 to 1000 ft
800 to 1500m
200 to 500 ft
< 800m
< 200 ft
Symbols :   Thunderstorms  Fog  Heavy snow  Heavy precipitations  Wind > 20 kt







- Airport Elevation : 171 ft
- IATA code : KEF


BIKF - Keflavik International

CURRENT METAR :
  • 171900Z 34011KT 9999 FEW028CB SCT080 BKN220 16/12 Q1002

EXPIRED METARs :
  • 171830Z 35014KT 9999 FEW028CB BKN220 17/12 Q1002
  • 171800Z 35015KT 9999 FEW028CB BKN220 17/12 Q1002
  • 171730Z 33012KT 9999 FEW028CB BKN220 17/13 Q1002
  • 171700Z 32012KT 9999 FEW014CB BKN220 16/12 Q1002
  • 171630Z 31013KT 9999 FEW014CB BKN220 16/12 Q1002

TAF TAF BIKF
Valid from the 17 at 18:00 until the 18 at 18:00 UTC


171614Z 1718/1818 35012KT 9999 SCT009 BKN018 TX17/1815Z TN11/1803Z
No reported NOTAMs for that airfield.



MET'MAP, your aeronautical weather chart ! - Copyright ORBIFLY December 2007 - Disclaimer

ORBIFLY MET'MAP TEAM :

Programming & Development : Alexandra Zaïnal
Concept & Development : Baudouin d'Aumeries
Co-Development & Prog : Marc-Olivier Méhu
Technical & hardware support : Manuel Goepfert

Contact : metmap@orbifly.com




SOURCES & CREDITS :

   NOAA